createdAt,value
2022-08-05T00:00:26.210Z,25.13
2022-08-05T00:03:15.730Z,25.09
2022-08-05T00:06:05.003Z,25.14
2022-08-05T00:08:40.333Z,25.12
2022-08-05T00:11:30.179Z,25.16
2022-08-05T00:14:11.965Z,25.05
2022-08-05T00:16:52.670Z,24.98
2022-08-05T00:19:40.611Z,24.91
2022-08-05T00:22:17.908Z,24.86
2022-08-05T00:24:55.184Z,24.88
2022-08-05T00:27:36.290Z,24.87
2022-08-05T00:30:11.540Z,24.84
2022-08-05T00:32:45.021Z,24.87
2022-08-05T00:35:20.404Z,24.88
2022-08-05T00:37:53.983Z,24.86
2022-08-05T00:40:29.404Z,24.86
2022-08-05T00:43:07.649Z,24.85
2022-08-05T00:45:43.756Z,24.72
2022-08-05T00:48:18.572Z,24.75
2022-08-05T00:51:08.836Z,24.74
2022-08-05T00:54:02.814Z,24.64
2022-08-05T00:56:35.098Z,24.64
2022-08-05T00:59:08.706Z,24.61
2022-08-05T01:01:42.928Z,24.62
2022-08-05T01:04:27.028Z,24.59
2022-08-05T01:07:02.151Z,24.55
2022-08-05T01:09:37.347Z,24.57
2022-08-05T01:12:18.881Z,24.54
2022-08-05T01:14:58.315Z,24.52
2022-08-05T01:17:39.962Z,24.47
2022-08-05T01:20:20.525Z,24.37
2022-08-05T01:23:15.397Z,24.42
2022-08-05T01:26:13.849Z,24.38
2022-08-05T01:28:52.503Z,24.26
2022-08-05T01:31:29.123Z,24.29
2022-08-05T01:34:08.515Z,24.27
2022-08-05T01:36:46.988Z,24.22
2022-08-05T01:39:45.525Z,24.23
2022-08-05T01:42:16.155Z,24.23
2022-08-05T01:44:54.165Z,24.19
2022-08-05T01:47:39.019Z,24.06
2022-08-05T01:50:17.350Z,24.04
2022-08-05T01:52:54.329Z,23.93
2022-08-05T01:55:29.317Z,23.92
2022-08-05T01:58:10.132Z,23.93
2022-08-05T02:00:51.425Z,23.92
2022-08-05T02:03:31.436Z,23.87
2022-08-05T02:06:33.687Z,23.79
2022-08-05T02:09:00.377Z,23.83
2022-08-05T02:11:52.474Z,23.82
2022-08-05T02:14:32.023Z,23.83
2022-08-05T02:17:16.989Z,23.69
2022-08-05T02:20:05.811Z,23.60
2022-08-05T02:22:41.750Z,23.72
2022-08-05T02:25:19.398Z,23.64
2022-08-05T02:27:58.911Z,23.52
2022-08-05T02:30:51.804Z,23.49
2022-08-05T02:33:38.369Z,23.52
2022-08-05T02:36:15.644Z,23.52
2022-08-05T02:38:53.277Z,23.48
2022-08-05T02:41:42.975Z,23.39
2022-08-05T02:44:23.055Z,23.44
2022-08-05T02:47:00.239Z,23.45
2022-08-05T02:49:37.765Z,23.46
2022-08-05T02:52:25.775Z,23.46
2022-08-05T02:55:05.424Z,23.41
2022-08-05T02:58:19.849Z,23.38
2022-08-05T03:00:37.796Z,23.34
2022-08-05T03:03:12.846Z,23.36
2022-08-05T03:06:56.474Z,23.26
2022-08-05T03:08:42.827Z,23.19
2022-08-05T03:11:54.694Z,23.06
2022-08-05T03:14:14.920Z,23.08
2022-08-05T03:16:46.788Z,23.07
2022-08-05T03:19:33.544Z,23.04
2022-08-05T03:22:16.212Z,23.10
2022-08-05T03:24:51.069Z,23.00
2022-08-05T03:27:39.193Z,22.96
2022-08-05T03:30:13.300Z,22.91
2022-08-05T03:32:46.158Z,22.91
2022-08-05T03:35:18.418Z,22.95
2022-08-05T03:37:50.727Z,22.90
2022-08-05T03:40:32.428Z,22.90
2022-08-05T03:43:15.898Z,22.91
2022-08-05T03:45:58.814Z,22.87
2022-08-05T03:48:35.637Z,22.80
2022-08-05T03:52:48.981Z,22.75
2022-08-05T03:56:01.492Z,22.60
2022-08-05T03:57:16.660Z,22.69
2022-08-05T03:59:56.723Z,22.69
2022-08-05T04:02:37.635Z,22.63
2022-08-05T04:05:13.670Z,22.65
2022-08-05T04:07:57.543Z,22.72
2022-08-05T04:10:37.702Z,22.66
2022-08-05T04:13:10.423Z,22.70
2022-08-05T04:16:03.026Z,22.76
2022-08-05T04:18:35.328Z,22.57
2022-08-05T04:21:08.048Z,22.71
2022-08-05T04:24:05.906Z,22.70
2022-08-05T04:26:35.769Z,22.69
2022-08-05T04:29:07.788Z,22.76
2022-08-05T04:31:40.536Z,22.82
2022-08-05T04:34:19.236Z,22.82
2022-08-05T04:37:04.338Z,22.85
2022-08-05T04:39:36.642Z,22.84
2022-08-05T04:42:11.027Z,22.86
2022-08-05T04:44:43.277Z,22.89
2022-08-05T04:47:20.048Z,22.90
2022-08-05T04:50:01.320Z,22.92
2022-08-05T04:52:34.505Z,22.94
2022-08-05T04:55:14.145Z,22.98
2022-08-05T04:57:54.032Z,23.06
2022-08-05T05:00:29.253Z,23.13
2022-08-05T05:03:03.923Z,23.15
2022-08-05T05:06:35.997Z,23.20
2022-08-05T05:08:30.434Z,23.23
2022-08-05T05:11:02.349Z,23.21
2022-08-05T05:13:43.071Z,23.29
2022-08-05T05:16:16.090Z,23.35
2022-08-05T05:19:16.451Z,23.39
2022-08-05T05:21:43.836Z,23.45
2022-08-05T05:24:19.517Z,23.46
2022-08-05T05:26:51.985Z,23.60
2022-08-05T05:29:24.383Z,23.65
2022-08-05T05:32:16.165Z,23.68
2022-08-05T05:34:52.304Z,23.76
2022-08-05T05:37:37.306Z,23.75
2022-08-05T05:40:20.102Z,23.72
2022-08-05T05:42:52.325Z,23.78
2022-08-05T05:45:23.047Z,23.80
2022-08-05T05:48:06.725Z,23.87
2022-08-05T05:50:44.399Z,23.90
2022-08-05T05:53:21.600Z,23.97
2022-08-05T05:56:01.008Z,24.04
2022-08-05T05:58:35.127Z,24.09
2022-08-05T06:01:15.238Z,24.15
2022-08-05T06:04:01.342Z,24.19
2022-08-05T06:06:35.297Z,24.38
2022-08-05T06:09:08.055Z,24.50
2022-08-05T06:11:39.796Z,24.63
2022-08-05T06:14:11.574Z,24.70
2022-08-05T06:16:43.164Z,24.76
2022-08-05T06:19:26.268Z,24.77
2022-08-05T06:22:08.109Z,24.86
2022-08-05T06:24:48.141Z,24.94
2022-08-05T06:28:11.816Z,24.94
2022-08-05T06:30:16.786Z,24.90
2022-08-05T06:32:51.565Z,24.94
2022-08-05T06:36:03.626Z,24.99
2022-08-05T06:38:16.143Z,25.13
2022-08-05T06:40:48.111Z,25.09
2022-08-05T06:43:58.137Z,25.05
2022-08-05T06:46:13.060Z,25.10
2022-08-05T06:48:55.409Z,25.14
2022-08-05T06:51:29.772Z,25.18
2022-08-05T06:54:03.600Z,25.20
2022-08-05T06:56:35.986Z,25.25
2022-08-05T06:59:09.910Z,25.32
2022-08-05T07:01:44.322Z,25.37
2022-08-05T07:04:19.260Z,25.41
2022-08-05T07:06:51.627Z,25.44
2022-08-05T07:09:24.953Z,25.47
2022-08-05T07:12:00.414Z,25.52
2022-08-05T07:14:50.612Z,25.58
2022-08-05T07:18:01.239Z,25.65
2022-08-05T07:20:33.015Z,25.73
2022-08-05T07:23:06.529Z,25.82
2022-08-05T07:25:56.442Z,25.87
2022-08-05T07:28:29.214Z,25.93
2022-08-05T07:31:01.671Z,26.00
2022-08-05T07:33:36.949Z,26.06
2022-08-05T07:36:20.609Z,26.18
2022-08-05T07:38:54.692Z,26.19
2022-08-05T07:42:13.302Z,26.27
2022-08-05T07:44:19.659Z,26.31
2022-08-05T07:46:52.197Z,26.35
2022-08-05T07:49:25.704Z,26.40
2022-08-05T07:51:58.866Z,26.44
2022-08-05T07:54:33.625Z,26.47
2022-08-05T07:57:51.307Z,26.51
2022-08-05T08:00:11.368Z,26.66
2022-08-05T08:03:14.525Z,26.72
2022-08-05T08:05:47.254Z,26.77
2022-08-05T08:08:21.808Z,26.90
2022-08-05T08:10:55.611Z,26.90
2022-08-05T08:13:29.048Z,26.99
2022-08-05T08:16:34.353Z,27.00
2022-08-05T08:18:53.190Z,27.17
2022-08-05T08:21:24.884Z,27.23
2022-08-05T08:24:02.310Z,27.23
2022-08-05T08:26:36.807Z,27.25
2022-08-05T08:29:45.291Z,27.36
2022-08-05T08:32:06.379Z,27.43
2022-08-05T08:34:42.872Z,27.42
2022-08-05T08:37:14.599Z,27.45
2022-08-05T08:39:50.676Z,27.53
2022-08-05T08:42:34.361Z,27.56
2022-08-05T08:45:27.135Z,27.58
2022-08-05T08:48:22.533Z,27.62
2022-08-05T08:51:07.676Z,27.76
2022-08-05T08:53:50.921Z,27.89
2022-08-05T08:56:27.004Z,28.01
2022-08-05T08:59:00.069Z,28.13
2022-08-05T09:01:32.866Z,28.18
2022-08-05T09:04:05.237Z,28.25
2022-08-05T09:06:43.109Z,28.33
2022-08-05T09:09:16.431Z,28.41
2022-08-05T09:11:51.548Z,28.49
2022-08-05T09:14:56.769Z,28.50
2022-08-05T09:17:42.942Z,28.70
2022-08-05T09:20:11.899Z,28.87
2022-08-05T09:23:21.923Z,29.00
2022-08-05T09:26:08.552Z,29.29
2022-08-05T09:28:42.096Z,29.36
2022-08-05T09:31:43.748Z,29.33
2022-08-05T09:34:10.495Z,29.46
2022-08-05T09:36:54.351Z,29.62
2022-08-05T09:39:45.225Z,29.78
2022-08-05T09:42:24.417Z,30.02
2022-08-05T09:45:17.570Z,30.03
2022-08-05T09:47:58.728Z,30.11
2022-08-05T09:50:45.191Z,30.17
2022-08-05T09:53:22.775Z,30.34
2022-08-05T09:56:03.770Z,30.49
2022-08-05T09:58:37.149Z,30.74
2022-08-05T10:01:31.530Z,30.83
2022-08-05T10:04:10.478Z,31.08
2022-08-05T10:06:58.647Z,31.19
2022-08-05T10:09:45.105Z,31.28
2022-08-05T10:12:30.006Z,31.42
2022-08-05T10:15:25.590Z,31.59
2022-08-05T10:18:10.355Z,31.65
2022-08-05T10:20:48.302Z,31.73
2022-08-05T10:23:50.979Z,31.74
2022-08-05T10:26:15.407Z,31.78
2022-08-05T10:28:46.764Z,31.78
2022-08-05T10:32:51.032Z,31.82
2022-08-05T10:34:12.291Z,31.87
2022-08-05T10:36:46.541Z,32.13
2022-08-05T10:39:59.366Z,32.17
2022-08-05T10:42:32.275Z,32.20
2022-08-05T10:45:21.410Z,32.14
2022-08-05T10:48:31.020Z,32.02
2022-08-05T10:51:21.788Z,32.08
2022-08-05T10:54:17.062Z,32.11
2022-08-05T10:56:53.461Z,32.16
2022-08-05T11:00:04.249Z,32.20
2022-08-05T11:02:37.679Z,32.28
2022-08-05T11:05:12.124Z,32.44
2022-08-05T11:08:04.768Z,32.43
2022-08-05T11:10:50.354Z,32.50
2022-08-05T11:13:55.105Z,32.62
2022-08-05T11:16:47.540Z,32.72
2022-08-05T11:20:16.773Z,32.82
2022-08-05T11:22:44.736Z,33.09
2022-08-05T11:26:04.761Z,33.31
2022-08-05T11:28:46.539Z,33.63
2022-08-05T11:31:57.908Z,33.75
2022-08-05T11:34:51.709Z,33.77
2022-08-05T11:38:28.239Z,33.86
2022-08-05T11:41:12.766Z,33.83
2022-08-05T11:44:07.428Z,33.97
2022-08-05T11:47:09.252Z,33.97
2022-08-05T11:49:33.797Z,34.01
2022-08-05T11:52:11.584Z,34.25
2022-08-05T11:54:48.468Z,34.27
2022-08-05T11:58:08.186Z,34.14
2022-08-05T12:00:30.894Z,34.18
2022-08-05T12:03:23.797Z,33.92
2022-08-05T12:06:09.926Z,33.95
2022-08-05T12:08:49.997Z,34.11
2022-08-05T12:11:28.239Z,34.37
2022-08-05T12:14:12.468Z,34.54
2022-08-05T12:16:46.488Z,34.53
2022-08-05T12:20:25.514Z,34.56
2022-08-05T12:22:17.949Z,34.71
2022-08-05T12:24:53.700Z,34.70
2022-08-05T12:27:27.334Z,34.66
2022-08-05T12:30:09.015Z,34.70
2022-08-05T12:32:51.166Z,34.93
2022-08-05T12:35:24.877Z,34.91
2022-08-05T12:38:11.962Z,34.94
2022-08-05T12:40:47.197Z,34.88
2022-08-05T12:43:20.700Z,34.95
2022-08-05T12:45:57.559Z,34.97
2022-08-05T12:48:39.014Z,35.00
2022-08-05T12:52:10.760Z,34.88
2022-08-05T12:54:14.858Z,34.92
2022-08-05T12:56:52.819Z,34.96
2022-08-05T12:59:46.913Z,35.08
2022-08-05T13:02:30.294Z,35.01
2022-08-05T13:05:06.894Z,34.75
2022-08-05T13:07:59.805Z,34.85
2022-08-05T13:10:34.081Z,35.10
2022-08-05T13:13:09.063Z,35.01
2022-08-05T13:15:50.901Z,34.88
2022-08-05T13:18:24.096Z,34.94
2022-08-05T13:20:56.059Z,34.98
2022-08-05T13:23:27.895Z,35.19
2022-08-05T13:26:01.135Z,35.39
2022-08-05T13:28:33.394Z,35.55
2022-08-05T13:31:14.284Z,35.52
2022-08-05T13:34:21.195Z,35.52
2022-08-05T13:36:39.226Z,35.58
2022-08-05T13:40:12.878Z,35.42
2022-08-05T13:42:05.902Z,35.41
2022-08-05T13:44:40.956Z,35.48
2022-08-05T13:47:34.919Z,35.55
2022-08-05T13:50:12.399Z,35.63
2022-08-05T13:52:50.055Z,35.59
2022-08-05T13:55:41.896Z,35.62
2022-08-05T13:58:30.257Z,35.78
2022-08-05T14:01:02.911Z,35.77
2022-08-05T14:03:35.917Z,35.78
2022-08-05T14:06:25.826Z,35.92
2022-08-05T14:08:59.433Z,36.06
2022-08-05T14:11:31.939Z,36.27
2022-08-05T14:14:23.124Z,36.23
2022-08-05T14:16:57.467Z,36.24
2022-08-05T14:19:30.133Z,36.26
2022-08-05T14:22:24.652Z,36.33
2022-08-05T14:25:06.413Z,36.10
2022-08-05T14:27:53.482Z,36.34
2022-08-05T14:30:26.720Z,36.52
2022-08-05T14:33:00.061Z,36.43
2022-08-05T14:35:36.950Z,36.31
2022-08-05T14:38:33.333Z,36.07
2022-08-05T14:41:08.517Z,36.08
2022-08-05T14:44:02.297Z,36.27
2022-08-05T14:46:35.089Z,36.38
2022-08-05T14:49:08.569Z,36.52
2022-08-05T14:51:43.218Z,36.68
2022-08-05T14:54:30.132Z,36.73
2022-08-05T14:57:13.460Z,36.78
2022-08-05T14:59:45.387Z,36.88
2022-08-05T15:02:17.412Z,36.72
2022-08-05T15:04:49.871Z,36.39
2022-08-05T15:08:10.743Z,36.12
2022-08-05T15:10:13.534Z,35.83
2022-08-05T15:13:00.343Z,35.64
2022-08-05T15:15:55.050Z,35.52
2022-08-05T15:18:25.257Z,35.36
2022-08-05T15:20:57.262Z,35.21
2022-08-05T15:23:40.002Z,35.04
2022-08-05T15:26:12.651Z,34.95
2022-08-05T15:28:43.055Z,34.79
2022-08-05T15:31:15.263Z,34.84
2022-08-05T15:34:18.397Z,34.93
2022-08-05T15:36:38.737Z,34.88
2022-08-05T15:40:59.098Z,34.75
2022-08-05T15:42:02.657Z,34.58
2022-08-05T15:44:55.027Z,34.45
2022-08-05T15:47:26.984Z,34.30
2022-08-05T15:49:59.484Z,34.33
2022-08-05T15:52:53.963Z,34.55
2022-08-05T15:56:02.706Z,34.47
2022-08-05T15:58:17.438Z,34.36
2022-08-05T16:00:50.673Z,34.32
2022-08-05T16:03:36.318Z,33.80
2022-08-05T16:06:13.249Z,33.35
2022-08-05T16:08:44.888Z,33.15
2022-08-05T16:11:17.001Z,32.92
2022-08-05T16:13:49.458Z,32.71
2022-08-05T16:16:25.490Z,32.69
2022-08-05T16:18:57.719Z,32.60
2022-08-05T16:22:00.619Z,32.49
2022-08-05T16:24:39.715Z,32.30
2022-08-05T16:27:15.782Z,32.19
2022-08-05T16:29:50.992Z,32.15
2022-08-05T16:32:28.383Z,32.10
2022-08-05T16:35:01.626Z,31.98
2022-08-05T16:38:03.378Z,31.62
2022-08-05T16:40:29.093Z,31.29
2022-08-05T16:43:01.531Z,31.07
2022-08-05T16:46:06.296Z,30.79
2022-08-05T16:48:33.458Z,30.35
2022-08-05T16:51:09.860Z,30.19
2022-08-05T16:54:03.383Z,30.24
2022-08-05T16:56:36.355Z,30.09
2022-08-05T16:59:10.206Z,30.03
2022-08-05T17:01:53.909Z,29.91
2022-08-05T17:04:30.738Z,29.79
2022-08-05T17:07:03.568Z,29.75
2022-08-05T17:09:58.435Z,29.69
2022-08-05T17:12:51.219Z,29.66
2022-08-05T17:15:23.213Z,29.52
2022-08-05T17:18:01.375Z,29.35
2022-08-05T17:20:33.208Z,29.32
2022-08-05T17:23:05.053Z,29.17
2022-08-05T17:25:39.877Z,28.85
2022-08-05T17:28:15.477Z,28.39
2022-08-05T17:30:50.542Z,28.24
2022-08-05T17:33:24.279Z,27.99
2022-08-05T17:36:07.300Z,27.60
2022-08-05T17:38:41.966Z,27.27
2022-08-05T17:42:16.926Z,26.98
2022-08-05T17:44:06.478Z,26.79
2022-08-05T17:46:43.112Z,26.75
2022-08-05T17:49:17.997Z,26.67
2022-08-05T17:51:50.246Z,26.82
2022-08-05T17:54:23.639Z,26.75
2022-08-05T17:56:55.339Z,26.52
2022-08-05T17:59:30.395Z,26.40
2022-08-05T18:02:02.857Z,26.38
2022-08-05T18:04:51.261Z,26.26
2022-08-05T18:07:25.513Z,26.52
2022-08-05T18:10:08.794Z,26.75
2022-08-05T18:12:42.438Z,26.42
2022-08-05T18:15:14.678Z,26.30
2022-08-05T18:17:58.890Z,26.29
2022-08-05T18:20:34.537Z,26.16
2022-08-05T18:23:11.514Z,26.10
2022-08-05T18:25:45.525Z,26.09
2022-08-05T18:28:18.149Z,26.02
2022-08-05T18:30:53.910Z,26.01
2022-08-05T18:33:27.497Z,26.08
2022-08-05T18:36:17.510Z,26.09
2022-08-05T18:38:51.221Z,26.16
2022-08-05T18:41:56.161Z,26.16
2022-08-05T18:44:33.295Z,26.05
2022-08-05T18:47:08.138Z,25.93
2022-08-05T18:50:01.436Z,26.05
2022-08-05T18:52:36.221Z,26.03
2022-08-05T18:55:11.736Z,26.02
2022-08-05T18:57:52.718Z,26.03
2022-08-05T19:00:29.150Z,26.15
2022-08-05T19:03:03.786Z,26.09
2022-08-05T19:06:12.056Z,26.01
2022-08-05T19:08:31.256Z,25.88
2022-08-05T19:11:04.680Z,25.79
2022-08-05T19:13:39.318Z,25.77
2022-08-05T19:16:25.394Z,25.85
2022-08-05T19:19:01.124Z,25.73
2022-08-05T19:21:34.761Z,25.76
2022-08-05T19:24:12.893Z,25.71
2022-08-05T19:26:55.187Z,25.75
2022-08-05T19:29:36.006Z,25.66
2022-08-05T19:32:11.240Z,25.72
2022-08-05T19:34:55.059Z,25.71
2022-08-05T19:37:34.939Z,25.61
2022-08-05T19:40:19.530Z,25.72
2022-08-05T19:43:05.558Z,25.73
2022-08-05T19:45:39.399Z,25.77
2022-08-05T19:48:26.329Z,25.63
2022-08-05T19:50:58.431Z,25.54
2022-08-05T19:54:04.307Z,25.52
2022-08-05T19:56:32.705Z,25.35
2022-08-05T19:59:51.516Z,25.35
2022-08-05T20:02:01.434Z,25.36
2022-08-05T20:04:35.377Z,25.28
2022-08-05T20:07:10.230Z,25.43
2022-08-05T20:09:53.753Z,25.51
2022-08-05T20:12:27.355Z,25.20
2022-08-05T20:14:59.380Z,25.28
2022-08-05T20:17:32.455Z,25.22
2022-08-05T20:20:11.346Z,25.19
2022-08-05T20:22:46.736Z,25.02
2022-08-05T20:25:18.746Z,24.79
2022-08-05T20:27:55.085Z,24.73
2022-08-05T20:30:30.333Z,24.96
2022-08-05T20:33:02.191Z,24.66
2022-08-05T20:35:34.034Z,24.57
2022-08-05T20:38:20.051Z,24.67
2022-08-05T20:40:56.419Z,24.58
2022-08-05T20:43:57.473Z,24.69
2022-08-05T20:46:24.996Z,24.60
2022-08-05T20:48:57.422Z,24.36
2022-08-05T20:51:29.593Z,24.37
2022-08-05T20:54:03.709Z,24.48
2022-08-05T20:56:42.261Z,24.29
2022-08-05T20:59:26.325Z,24.14
2022-08-05T21:01:59.092Z,23.93
2022-08-05T21:04:32.686Z,23.94
2022-08-05T21:07:04.415Z,23.87
2022-08-05T21:09:36.186Z,23.72
2022-08-05T21:12:11.999Z,23.65
2022-08-05T21:14:49.098Z,23.67
2022-08-05T21:17:21.499Z,23.64
2022-08-05T21:19:53.183Z,23.75
2022-08-05T21:22:26.876Z,23.95
2022-08-05T21:25:00.642Z,23.84
2022-08-05T21:27:38.657Z,24.07
2022-08-05T21:30:17.475Z,23.83
2022-08-05T21:32:49.692Z,24.10
2022-08-05T21:35:29.724Z,23.90
2022-08-05T21:38:03.035Z,23.80
2022-08-05T21:40:35.418Z,23.61
2022-08-05T21:43:08.221Z,23.65
2022-08-05T21:45:56.291Z,23.65
2022-08-05T21:48:31.812Z,23.52
2022-08-05T21:51:03.865Z,23.32
2022-08-05T21:53:56.831Z,23.33
2022-08-05T21:56:35.712Z,23.52
2022-08-05T21:59:22.716Z,23.57
2022-08-05T22:01:56.969Z,23.41
2022-08-05T22:04:28.744Z,23.33
2022-08-05T22:06:59.544Z,23.28
2022-08-05T22:09:45.434Z,23.25
2022-08-05T22:12:18.345Z,23.22
2022-08-05T22:14:58.712Z,23.33
2022-08-05T22:17:31.746Z,23.37
2022-08-05T22:20:16.306Z,23.07
2022-08-05T22:23:16.783Z,23.19
2022-08-05T22:26:10.150Z,23.29
2022-08-05T22:28:43.452Z,23.28
2022-08-05T22:31:17.119Z,23.28
2022-08-05T22:33:57.456Z,23.28
2022-08-05T22:36:30.084Z,23.30
2022-08-05T22:39:04.370Z,23.20
2022-08-05T22:42:09.771Z,23.21
2022-08-05T22:44:33.170Z,23.14
2022-08-05T22:47:06.573Z,23.12
2022-08-05T22:50:21.666Z,23.09
2022-08-05T22:52:34.373Z,23.01
2022-08-05T22:55:18.309Z,23.15
2022-08-05T22:57:52.325Z,23.29
2022-08-05T23:00:23.495Z,23.16
2022-08-05T23:02:56.164Z,22.95
2022-08-05T23:05:29.847Z,22.97
2022-08-05T23:08:07.788Z,22.96
2022-08-05T23:10:43.337Z,23.04
2022-08-05T23:13:14.925Z,23.07
2022-08-05T23:15:46.522Z,22.96
2022-08-05T23:18:22.923Z,22.91
2022-08-05T23:20:54.940Z,22.93
2022-08-05T23:23:29.900Z,22.98
2022-08-05T23:26:05.627Z,23.01
2022-08-05T23:28:37.333Z,22.95
2022-08-05T23:31:17.150Z,22.96
2022-08-05T23:34:05.583Z,22.73
2022-08-05T23:36:44.336Z,22.71
2022-08-05T23:39:31.982Z,22.71
2022-08-05T23:42:04.927Z,22.84
2022-08-05T23:44:40.489Z,22.92
2022-08-05T23:47:16.258Z,22.85
2022-08-05T23:49:48.748Z,23.01
2022-08-05T23:52:31.668Z,23.01
2022-08-05T23:55:05.567Z,23.13
2022-08-05T23:57:39.800Z,23.02
